Delta, Iowa
Current Conditions -  °F | °C
As of 10:15 AM on Friday 19 Dec 2014 (Local Time) from KOOA Reporting Station
Overcast Overcast  
Wind Chill: 22°   Ceiling: 4800
Heat Index: 28°   Visibility: 7mi
Dew Point: 25°   Wind: 6mph
Humidity: 86%   Direction: 140°SE
Pressure: 30.31"   Gusts: NA
Location:  41.32°N, 92.33°W
Report Text: KOOA 191615Z AUTO 14005KT 7SM OVC048 M02/M04 A3031 RMK AO2 T10201040
Loading
Personal Weather Stations






























Interactive Weather Map New forecast layout! Learn more

10-Day Weather Forecast

Advertisements
Track Severe Weather on mobile